San Clemente, California
Current Conditions -  °F | °C
As of 1:54 AM on Wednesday 22 Oct 2014 (Local Time) from KNFG Reporting Station
Haze Haze  
Wind Chill: 61°   Ceiling: 800
Heat Index: 61°   Visibility: 5mi
Dew Point: 56°   Wind: 5mph
Humidity: 83%   Direction: 50°NE
Pressure: 29.87"   Gusts: NA
Location:  33.43°N, 117.6°W
Report Text: KNFG 220854Z AUTO 05004KT 5SM HZ OVC008 16/13 A2987 RMK AO2 SLPNO T01610133 58003
Loading
Personal Weather Stations






























Interactive Weather Map
Tropical Storm Tracking
New forecast layout! Learn more

10-Day Weather Forecast

Advertisements
Track Severe Weather on mobile